Ferdinand, Idaho
Current Conditions -  °F | °C
As of 7:15 AM on Thursday 23 Oct 2014 (Local Time) from KGIC Reporting Station
Scattered Clouds Scattered Clouds  
Wind Chill: 55°   Ceiling: Unl
Heat Index: 55°   Visibility: 10mi
Dew Point: 40°   Wind: 10mph
Humidity: 59%   Direction: 260°W
Pressure: 29.88"   Gusts: NA
Location:  46.15°N, 116.39°W
Report Text: KGIC 231415Z AUTO 26009KT 10SM SCT120 13/05 A2988 RMK AO1 T01250047
Loading
Personal Weather Stations






























Interactive Weather Map New forecast layout! Learn more

10-Day Weather Forecast

Advertisements
Track Severe Weather on mobile